Time;durP1;ratioP1;P1;durP2;ratioP2;P2;SDS_P1;SDS_P2;PMS_P1;PMS_P2;Temp;Humidity;BMP_temperature;BMP_pressure;BME280_temperature;BME280_humidity;BME280_pressure;Samples;Min_cycle;Max_cycle;Signal;HPM_P1;HPM_P2
2023/03/17 00:02:08;;;;;;;2.50;2.30;;;;;;;-145.53;100.00;64590.91;6358718;28;20433;-61
2023/03/17 00:05:26;;;;;;;2.20;2.07;;;;;;;-145.53;100.00;64590.91;6344183;28;20441;-61
2023/03/17 00:08:38;;;;;;;2.00;1.90;;;;;;;-145.53;100.00;64590.91;6348741;27;20436;-61
2023/03/17 00:11:48;;;;;;;2.30;2.20;;;;;;;-145.53;100.00;64590.91;6359925;27;20431;-61
2023/03/17 00:14:54;;;;;;;2.53;2.33;;;;;;;-145.53;100.00;64590.91;6359937;27;20420;-61
2023/03/17 00:18:06;;;;;;;2.07;1.97;;;;;;;-145.53;100.00;64590.91;6351735;28;20421;-61
2023/03/17 00:21:14;;;;;;;2.10;1.90;;;;;;;-145.53;100.00;64590.91;6338504;27;20448;-61
2023/03/17 00:24:19;;;;;;;2.60;2.40;;;;;;;-145.53;100.00;64590.91;6350619;28;20841;-61
2023/03/17 00:27:29;;;;;;;2.00;1.90;;;;;;;-145.53;100.00;64590.91;6352050;27;20566;-61
2023/03/17 00:30:39;;;;;;;2.30;2.10;;;;;;;-145.53;100.00;64590.91;6350164;27;20944;-61
2023/03/17 00:33:46;;;;;;;2.13;2.03;;;;;;;-145.53;100.00;64590.91;6359309;28;20436;-61
2023/03/17 00:36:54;;;;;;;2.03;1.93;;;;;;;-145.53;100.00;64590.91;6355401;28;20420;-62
2023/03/17 00:40:08;;;;;;;2.13;1.93;;;;;;;-145.53;100.00;64590.91;6359040;28;20421;-61
2023/03/17 00:43:19;;;;;;;2.10;1.90;;;;;;;-145.53;100.00;64590.91;6348046;28;20448;-61
2023/03/17 00:46:34;;;;;;;2.20;2.10;;;;;;;-145.53;100.00;64590.91;6349874;27;21001;-61
2023/03/17 00:49:43;;;;;;;2.10;1.97;;;;;;;-145.53;100.00;64590.91;6333402;28;20462;-61
2023/03/17 00:52:51;;;;;;;2.10;2.00;;;;;;;-145.53;100.00;64590.91;6329104;28;20990;-61
2023/03/17 00:56:02;;;;;;;1.90;1.80;;;;;;;-145.53;100.00;64590.91;6326727;28;20805;-61
2023/03/17 00:59:22;;;;;;;2.00;1.90;;;;;;;-145.53;100.00;64590.91;6319717;28;20425;-61
2023/03/17 01:02:29;;;;;;;2.30;2.10;;;;;;;-145.53;100.00;64590.91;6333227;28;20430;-60
2023/03/17 01:05:41;;;;;;;1.90;1.80;;;;;;;-145.53;100.00;64590.91;6318439;28;20435;-60
2023/03/17 01:08:48;;;;;;;2.10;1.90;;;;;;;-145.53;100.00;64590.91;6333582;28;20453;-60
2023/03/17 01:11:58;;;;;;;2.53;2.33;;;;;;;-145.53;100.00;64590.91;6333486;28;20429;-60
2023/03/17 01:15:07;;;;;;;1.90;1.80;;;;;;;-145.53;100.00;64590.91;6332154;28;20421;-61
2023/03/17 01:18:16;;;;;;;1.70;1.60;;;;;;;-145.53;100.00;64590.91;6321419;28;20437;-60
2023/03/17 01:21:25;;;;;;;2.23;2.13;;;;;;;-145.53;100.00;64590.91;6332394;28;20552;-60
2023/03/17 01:24:36;;;;;;;2.30;2.10;;;;;;;-145.53;100.00;64590.91;6332445;28;20437;-60
2023/03/17 01:27:42;;;;;;;1.87;1.77;;;;;;;-145.53;100.00;64590.91;6325255;28;20499;-60
2023/03/17 01:30:50;;;;;;;2.00;1.90;;;;;;;-145.53;100.00;64590.91;6328701;28;20789;-60
2023/03/17 01:34:03;;;;;;;1.90;1.80;;;;;;;-145.53;100.00;64590.91;6333154;28;20457;-60
2023/03/17 01:37:14;;;;;;;2.10;2.00;;;;;;;-145.53;100.00;64590.91;6332554;28;20778;-61
2023/03/17 01:40:23;;;;;;;2.37;2.17;;;;;;;-145.53;100.00;64590.91;6321081;28;20449;-60
2023/03/17 01:43:34;;;;;;;1.90;1.80;;;;;;;-145.53;100.00;64590.91;6332939;28;20430;-60
2023/03/17 01:46:48;;;;;;;2.43;1.90;;;;;;;-145.53;100.00;64590.91;6328736;28;20583;-60
2023/03/17 01:49:55;;;;;;;1.93;1.83;;;;;;;-145.53;100.00;64590.91;6355868;28;20487;-60
2023/03/17 01:53:06;;;;;;;1.97;1.87;;;;;;;-145.53;100.00;64590.91;6352145;28;20447;-60
2023/03/17 01:56:16;;;;;;;1.90;1.80;;;;;;;-145.53;100.00;64590.91;6356129;27;20904;-60
2023/03/17 01:59:32;;;;;;;1.87;1.77;;;;;;;-145.53;100.00;64590.91;6359212;27;20417;-60
2023/03/17 02:02:45;;;;;;;2.10;2.00;;;;;;;-145.53;100.00;64590.91;6350842;27;20523;-61
2023/03/17 02:05:56;;;;;;;1.93;1.83;;;;;;;-145.53;100.00;64590.91;6353699;27;20638;-60
2023/03/17 02:09:08;;;;;;;1.70;1.60;;;;;;;-145.53;100.00;64590.91;6359399;28;20531;-60
2023/03/17 02:12:17;;;;;;;1.57;1.47;;;;;;;-145.53;100.00;64590.91;6356934;27;20471;-60
2023/03/17 02:15:24;;;;;;;1.60;1.50;;;;;;;-145.53;100.00;64590.91;6346958;27;20437;-60
2023/03/17 02:18:34;;;;;;;1.90;1.80;;;;;;;-145.53;100.00;64590.91;6345936;28;20519;-60
2023/03/17 02:21:46;;;;;;;1.80;1.70;;;;;;;-145.53;100.00;64590.91;6357948;27;20905;-60
2023/03/17 02:24:56;;;;;;;1.73;1.63;;;;;;;-145.53;100.00;64590.91;6351118;27;20929;-60
2023/03/17 02:28:09;;;;;;;1.73;1.63;;;;;;;-145.53;100.00;64590.91;6350250;28;20826;-60
2023/03/17 02:31:17;;;;;;;1.80;1.70;;;;;;;-145.53;100.00;64590.91;6355809;27;20806;-60
2023/03/17 02:34:25;;;;;;;1.90;1.80;;;;;;;-145.53;100.00;64590.91;6362390;27;20931;-59
2023/03/17 02:37:35;;;;;;;1.70;1.60;;;;;;;-145.53;100.00;64590.91;6347189;27;20433;-59
2023/03/17 02:40:40;;;;;;;1.73;1.63;;;;;;;-145.53;100.00;64590.91;6361404;27;20806;-59
2023/03/17 02:43:48;;;;;;;1.70;1.60;;;;;;;-145.53;100.00;64590.91;6358689;28;20498;-59
2023/03/17 02:46:57;;;;;;;1.67;1.57;;;;;;;-145.53;100.00;64590.91;6343865;27;20444;-61
2023/03/17 02:50:06;;;;;;;1.77;1.67;;;;;;;-145.53;100.00;64590.91;6329503;28;20451;-59
2023/03/17 02:53:16;;;;;;;1.67;1.57;;;;;;;-145.53;100.00;64590.91;6332407;28;20442;-60
2023/03/17 02:56:24;;;;;;;1.80;1.70;;;;;;;-145.53;100.00;64590.91;6334684;28;20432;-60
2023/03/17 02:59:32;;;;;;;1.90;1.70;;;;;;;-145.53;100.00;64590.91;6324075;28;20439;-60
2023/03/17 03:02:39;;;;;;;1.50;1.40;;;;;;;-145.53;100.00;64590.91;6336364;28;20425;-60
2023/03/17 03:05:48;;;;;;;1.60;1.50;;;;;;;-145.53;100.00;64590.91;6335516;28;20445;-60
2023/03/17 03:08:58;;;;;;;1.70;1.60;;;;;;;-145.53;100.00;64590.91;6335906;28;20417;-60
2023/03/17 03:12:09;;;;;;;1.70;1.60;;;;;;;-145.53;100.00;64590.91;6317003;28;20506;-60
2023/03/17 03:15:19;;;;;;;1.60;1.50;;;;;;;-145.53;100.00;64590.91;6334368;28;20438;-60
2023/03/17 03:18:27;;;;;;;1.70;1.60;;;;;;;-145.53;100.00;64590.91;6335197;28;20433;-60
2023/03/17 03:21:37;;;;;;;1.40;1.30;;;;;;;-145.53;100.00;64590.91;6330409;28;20445;-61
2023/03/17 03:24:49;;;;;;;1.67;1.57;;;;;;;-145.53;100.00;64590.91;6332080;28;20449;-60
2023/03/17 03:27:57;;;;;;;1.80;1.70;;;;;;;-145.53;100.00;64590.91;6335356;28;20456;-60
2023/03/17 03:31:07;;;;;;;1.63;1.53;;;;;;;-145.53;100.00;64590.91;6335321;28;20434;-60
2023/03/17 03:34:16;;;;;;;1.80;1.70;;;;;;;-145.53;100.00;64590.91;6323961;28;20441;-61
2023/03/17 03:37:24;;;;;;;1.50;1.40;;;;;;;-145.53;100.00;64590.91;6334673;28;20429;-60
2023/03/17 03:40:36;;;;;;;1.67;1.57;;;;;;;-145.53;100.00;64590.91;6335139;28;20421;-60
2023/03/17 03:43:42;;;;;;;1.70;1.60;;;;;;;-145.53;100.00;64590.91;6334816;28;20466;-60
2023/03/17 03:46:50;;;;;;;1.40;1.30;;;;;;;-145.53;100.00;64590.91;6323893;28;20813;-60
2023/03/17 03:49:57;;;;;;;1.70;1.60;;;;;;;-145.53;100.00;64590.91;6360720;28;20432;-60
2023/03/17 03:53:04;;;;;;;1.50;1.40;;;;;;;-145.53;100.00;64590.91;6359934;28;20577;-60
2023/03/17 03:56:16;;;;;;;1.50;1.40;;;;;;;-145.53;100.00;64590.91;6346550;28;20443;-60
2023/03/17 03:59:21;;;;;;;1.50;1.40;;;;;;;-145.53;100.00;64590.91;6359062;28;20482;-60
2023/03/17 04:02:30;;;;;;;1.63;1.53;;;;;;;-145.53;100.00;64590.91;6357888;28;20910;-60
2023/03/17 04:05:34;;;;;;;1.40;1.30;;;;;;;-145.53;100.00;64590.91;6359146;28;20578;-60
2023/03/17 04:08:43;;;;;;;1.50;1.40;;;;;;;-145.53;100.00;64590.91;6348892;27;20444;-60
2023/03/17 04:11:52;;;;;;;1.43;1.33;;;;;;;-145.53;100.00;64590.91;6352830;28;20481;-60
2023/03/17 04:15:02;;;;;;;1.80;1.70;;;;;;;-145.53;100.00;64590.91;6358144;28;20537;-60
2023/03/17 04:18:10;;;;;;;1.33;1.33;;;;;;;-145.53;100.00;64590.91;6350160;28;20471;-60
2023/03/17 04:21:20;;;;;;;1.60;1.50;;;;;;;-145.53;100.00;64590.91;6339975;27;20535;-60
2023/03/17 04:24:26;;;;;;;2.20;2.10;;;;;;;-145.53;100.00;64590.91;6357535;27;20841;-64
2023/03/17 04:27:33;;;;;;;31.43;28.63;;;;;;;-145.53;100.00;64590.91;6354902;28;20573;-64
2023/03/17 04:30:39;;;;;;;20.93;18.93;;;;;;;-145.53;100.00;64590.91;6348478;27;20498;-65
2023/03/17 04:33:47;;;;;;;12.70;11.60;;;;;;;-145.53;100.00;64590.91;6360225;28;20515;-64
2023/03/17 04:36:56;;;;;;;12.13;11.03;;;;;;;-145.53;100.00;64590.91;6346891;28;20795;-65
2023/03/17 04:40:07;;;;;;;12.40;11.33;;;;;;;-145.53;100.00;64590.91;6360225;28;20467;-64
2023/03/17 04:43:17;;;;;;;12.73;11.67;;;;;;;-145.53;100.00;64590.91;6347289;27;20543;-64
2023/03/17 04:46:24;;;;;;;11.93;10.93;;;;;;;-145.53;100.00;64590.91;6357212;28;20456;-65
2023/03/17 04:49:31;;;;;;;12.27;11.17;;;;;;;-145.53;100.00;64590.91;6358631;28;20435;-65
2023/03/17 04:52:38;;;;;;;11.80;10.60;;;;;;;-145.53;100.00;64590.91;6343883;28;20427;-64
2023/03/17 04:55:45;;;;;;;7.53;6.80;;;;;;;-145.53;100.00;64590.91;6347874;27;20833;-64
2023/03/17 04:58:53;;;;;;;6.43;5.93;;;;;;;-145.53;100.00;64590.91;6347880;28;20425;-63
2023/03/17 05:02:01;;;;;;;5.67;5.17;;;;;;;-145.53;100.00;64590.91;6357689;27;20421;-63
2023/03/17 05:05:08;;;;;;;5.43;4.97;;;;;;;-145.53;100.00;64590.91;6347240;27;20960;-63
2023/03/17 05:08:16;;;;;;;5.10;4.63;;;;;;;-145.53;100.00;64590.91;6359102;27;20474;-63
2023/03/17 05:11:23;;;;;;;7.83;4.30;;;;;;;-145.53;100.00;64590.91;6358610;28;20443;-61
2023/03/17 05:14:34;;;;;;;6.13;3.77;;;;;;;-145.53;100.00;64590.91;6358993;27;20464;-59
2023/03/17 05:17:43;;;;;;;3.30;3.00;;;;;;;-145.53;100.00;64590.91;6343632;28;20428;-60
2023/03/17 05:20:50;;;;;;;4.00;3.60;;;;;;;-145.53;100.00;64590.91;6357377;27;20439;-60
2023/03/17 05:24:01;;;;;;;3.43;3.13;;;;;;;-145.53;100.00;64590.91;6359190;27;20553;-60
2023/03/17 05:27:09;;;;;;;3.67;3.37;;;;;;;-145.53;100.00;64590.91;6336035;27;20499;-61
2023/03/17 05:30:19;;;;;;;3.70;3.40;;;;;;;-145.53;100.00;64590.91;6328116;28;20942;-61
2023/03/17 05:33:29;;;;;;;4.70;3.60;;;;;;;-145.53;100.00;64590.91;6333310;28;20425;-60
2023/03/17 05:36:37;;;;;;;5.87;4.07;;;;;;;-145.53;100.00;64590.91;6337506;28;20519;-60
2023/03/17 05:39:44;;;;;;;4.07;3.77;;;;;;;-145.53;100.00;64590.91;6326103;28;20467;-64
2023/03/17 05:42:51;;;;;;;6.00;3.87;;;;;;;-145.53;100.00;64590.91;6354526;28;20550;-62
2023/03/17 05:46:04;;;;;;;4.73;4.33;;;;;;;-145.53;100.00;64590.91;6355113;27;20564;-62
2023/03/17 05:49:15;;;;;;;5.90;3.97;;;;;;;-145.53;100.00;64590.91;6337453;28;20448;-60
2023/03/17 05:52:24;;;;;;;8.63;5.23;;;;;;;-145.53;100.00;64590.91;6325531;27;20443;-60
2023/03/17 05:55:35;;;;;;;7.03;5.60;;;;;;;-145.53;100.00;64590.91;6335514;28;20468;-60
2023/03/17 05:58:47;;;;;;;6.93;6.00;;;;;;;-145.53;100.00;64590.91;6337413;28;20941;-61
2023/03/17 06:01:55;;;;;;;6.40;5.90;;;;;;;-145.53;100.00;64590.91;6326350;28;20441;-62
2023/03/17 06:05:02;;;;;;;7.27;6.60;;;;;;;-145.53;100.00;64590.91;6336584;28;20445;-61
2023/03/17 06:08:13;;;;;;;7.37;6.77;;;;;;;-145.53;100.00;64590.91;6336653;28;20421;-61
2023/03/17 06:11:19;;;;;;;7.83;7.10;;;;;;;-145.53;100.00;64590.91;6337041;28;20903;-61
2023/03/17 06:14:29;;;;;;;7.97;6.73;;;;;;;-145.53;100.00;64590.91;6325982;28;20816;-61
2023/03/17 06:17:38;;;;;;;7.90;7.30;;;;;;;-145.53;100.00;64590.91;6335130;28;20421;-61
2023/03/17 06:20:47;;;;;;;9.07;8.13;;;;;;;-145.53;100.00;64590.91;6337257;28;20432;-61
2023/03/17 06:23:55;;;;;;;9.40;8.60;;;;;;;-145.53;100.00;64590.91;6335780;28;20436;-61
2023/03/17 06:27:08;;;;;;;8.80;8.00;;;;;;;-145.53;100.00;64590.91;6328846;28;20442;-61
2023/03/17 06:30:17;;;;;;;10.33;9.43;;;;;;;-145.53;100.00;64590.91;6336870;28;20460;-61
2023/03/17 06:33:29;;;;;;;12.03;10.93;;;;;;;-145.53;100.00;64590.91;6336582;28;20491;-61
2023/03/17 06:36:40;;;;;;;11.37;10.27;;;;;;;-145.53;100.00;64590.91;6323078;28;20445;-61
2023/03/17 06:39:46;;;;;;;11.50;10.43;;;;;;;-145.53;100.00;64590.91;6336648;28;20496;-60
2023/03/17 06:42:52;;;;;;;12.47;11.33;;;;;;;-145.53;100.00;64590.91;6336506;28;20426;-61
2023/03/17 06:46:00;;;;;;;11.20;10.20;;;;;;;-145.53;100.00;64590.91;6333724;28;20449;-61
2023/03/17 06:49:12;;;;;;;12.70;11.60;;;;;;;-145.53;100.00;64590.91;6324692;28;20524;-61
2023/03/17 06:52:19;;;;;;;11.53;10.60;;;;;;;-145.53;100.00;64590.91;6336343;28;20505;-60
2023/03/17 06:55:30;;;;;;;11.43;10.37;;;;;;;-145.53;100.00;64590.91;6334013;28;20898;-61
2023/03/17 06:58:38;;;;;;;11.93;10.80;;;;;;;-145.53;100.00;64590.91;6330606;28;20452;-61
2023/03/17 07:01:47;;;;;;;12.23;11.23;;;;;;;-145.53;100.00;64590.91;6330199;28;20453;-62
2023/03/17 07:04:59;;;;;;;11.97;10.80;;;;;;;-145.53;100.00;64590.91;6335901;28;20429;-62
2023/03/17 07:08:10;;;;;;;10.67;9.77;;;;;;;-145.53;100.00;64590.91;6334512;28;20425;-62
2023/03/17 07:11:22;;;;;;;11.50;10.30;;;;;;;-145.53;100.00;64590.91;6324166;28;20812;-61
2023/03/17 07:14:29;;;;;;;11.20;10.20;;;;;;;-145.53;100.00;64590.91;6336257;28;20422;-60
2023/03/17 07:17:40;;;;;;;10.50;9.47;;;;;;;-145.53;100.00;64590.91;6333769;28;20829;-61
2023/03/17 07:20:50;;;;;;;9.50;8.60;;;;;;;-145.53;100.00;64590.91;6335894;28;20758;-60
2023/03/17 07:23:57;;;;;;;9.90;9.00;;;;;;;-145.53;100.00;64590.91;6299041;28;20446;-61
2023/03/17 07:27:04;;;;;;;9.10;8.30;;;;;;;-145.53;100.00;64590.91;6325896;28;20449;-61
2023/03/17 07:30:17;;;;;;;9.50;8.70;;;;;;;-145.53;100.00;64590.91;6335782;28;20418;-61
2023/03/17 07:33:23;;;;;;;9.73;8.83;;;;;;;-145.53;100.00;64590.91;6324826;28;20591;-62
2023/03/17 07:36:37;;;;;;;8.23;7.63;;;;;;;-145.53;100.00;64590.91;6332803;28;20434;-61
2023/03/17 07:39:47;;;;;;;9.17;8.37;;;;;;;-145.53;100.00;64590.91;6335627;28;20421;-62
2023/03/17 07:42:51;;;;;;;8.50;7.80;;;;;;;-145.53;100.00;64590.91;6335284;28;20475;-62
2023/03/17 07:45:56;;;;;;;8.43;7.63;;;;;;;-145.53;100.00;64590.91;6321104;28;20538;-62
2023/03/17 07:49:00;;;;;;;8.57;7.77;;;;;;;-145.53;100.00;64590.91;6334785;28;20487;-60
2023/03/17 07:52:05;;;;;;;8.60;7.90;;;;;;;-145.53;100.00;64590.91;6335384;28;20436;-61
2023/03/17 07:55:11;;;;;;;7.50;6.80;;;;;;;-145.53;100.00;64590.91;6333721;28;20418;-61
2023/03/17 07:58:15;;;;;;;7.90;7.20;;;;;;;-145.53;100.00;64590.91;6324990;28;20433;-61
2023/03/17 08:01:18;;;;;;;8.03;7.33;;;;;;;-145.53;100.00;64590.91;6334986;28;20437;-61
2023/03/17 08:04:21;;;;;;;7.63;7.03;;;;;;;-145.53;100.00;64590.91;6335193;28;20823;-61
2023/03/17 08:07:26;;;;;;;7.23;6.63;;;;;;;-145.53;100.00;64590.91;6321658;28;20441;-61
2023/03/17 08:10:29;;;;;;;7.73;7.03;;;;;;;-145.53;100.00;64590.91;6335091;28;20441;-61
2023/03/17 08:13:34;;;;;;;7.53;6.83;;;;;;;-145.53;100.00;64590.91;6334817;28;20440;-61
2023/03/17 08:16:37;;;;;;;7.57;6.87;;;;;;;-145.53;100.00;64590.91;6332269;28;20520;-60
2023/03/17 08:19:43;;;;;;;7.20;6.50;;;;;;;-145.53;100.00;64590.91;6323783;28;20781;-60
2023/03/17 08:22:51;;;;;;;6.53;5.93;;;;;;;-145.53;100.00;64590.91;6334454;28;20426;-60
2023/03/17 08:25:58;;;;;;;6.80;6.20;;;;;;;-145.53;100.00;64590.91;6332015;28;20449;-61
2023/03/17 08:29:03;;;;;;;6.90;6.37;;;;;;;-145.53;100.00;64590.91;6334730;28;20421;-60
2023/03/17 08:32:13;;;;;;;7.20;6.60;;;;;;;-145.53;100.00;64590.91;6322827;28;20520;-60
2023/03/17 08:35:19;;;;;;;6.50;5.80;;;;;;;-145.53;100.00;64590.91;6332656;28;20428;-60
2023/03/17 08:38:30;;;;;;;8.23;6.70;;;;;;;-145.53;100.00;64590.91;6334356;28;20429;-60
2023/03/17 08:41:44;;;;;;;6.47;5.87;;;;;;;-145.53;100.00;64590.91;6322871;28;20438;-61
2023/03/17 08:44:52;;;;;;;5.73;5.23;;;;;;;-145.53;100.00;64590.91;6334033;28;20809;-61
2023/03/17 08:48:02;;;;;;;6.63;5.93;;;;;;;-145.53;100.00;64590.91;6331780;28;20942;-60
2023/03/17 08:51:13;;;;;;;6.80;5.17;;;;;;;-145.53;100.00;64590.91;6334578;28;20431;-60
2023/03/17 08:54:29;;;;;;;5.73;5.33;;;;;;;-145.53;100.00;64590.91;6298008;28;20438;-61
2023/03/17 08:57:40;;;;;;;6.30;5.70;;;;;;;-145.53;100.00;64590.91;6329068;28;20421;-61
2023/03/17 09:00:49;;;;;;;5.17;4.77;;;;;;;-145.53;100.00;64590.91;6334352;28;20479;-60
2023/03/17 09:03:55;;;;;;;5.53;5.10;;;;;;;-145.53;100.00;64590.91;6328165;28;20430;-60
2023/03/17 09:07:05;;;;;;;5.80;5.30;;;;;;;-145.53;100.00;64590.91;6324887;28;20460;-60
2023/03/17 09:10:21;;;;;;;4.83;4.40;;;;;;;-145.53;100.00;64590.91;6336311;28;20429;-60
2023/03/17 09:13:31;;;;;;;5.60;5.13;;;;;;;-145.53;100.00;64590.91;6338109;28;20426;-61
2023/03/17 09:16:47;;;;;;;4.77;4.37;;;;;;;-145.53;100.00;64590.91;6324202;28;20433;-60
2023/03/17 09:19:56;;;;;;;5.00;4.60;;;;;;;-145.53;100.00;64590.91;6338428;28;20428;-60
2023/03/17 09:23:08;;;;;;;5.33;4.90;;;;;;;-145.53;100.00;64590.91;6337861;28;20433;-61
2023/03/17 09:26:18;;;;;;;5.30;4.80;;;;;;;-145.53;100.00;64590.91;6335580;28;20441;-60
2023/03/17 09:29:26;;;;;;;5.23;4.80;;;;;;;-145.53;100.00;64590.91;6326448;28;20444;-62
2023/03/17 09:32:37;;;;;;;5.27;4.87;;;;;;;-145.53;100.00;64590.91;6337751;28;20428;-62
2023/03/17 09:35:49;;;;;;;4.97;4.67;;;;;;;-145.53;100.00;64590.91;6335664;28;20490;-60
2023/03/17 09:38:56;;;;;;;4.90;4.37;;;;;;;-145.53;100.00;64590.91;6326751;28;20453;-60
2023/03/17 09:42:25;;;;;;;5.20;4.70;;;;;;;-145.53;100.00;64590.91;6337628;28;20437;-61
2023/03/17 09:45:39;;;;;;;4.63;4.30;;;;;;;-145.53;100.00;64590.91;6335234;28;20756;-60
2023/03/17 09:48:59;;;;;;;4.40;4.10;;;;;;;-145.53;100.00;64590.91;6354610;27;20443;-61
2023/03/17 09:52:13;;;;;;;5.03;4.07;;;;;;;-145.53;100.00;64590.91;6340753;27;20443;-60
2023/03/17 09:55:27;;;;;;;4.33;3.83;;;;;;;-145.53;100.00;64590.91;6358148;27;21876;-60
2023/03/17 09:58:39;;;;;;;4.70;4.30;;;;;;;-145.53;100.00;64590.91;6337956;28;20791;-61
2023/03/17 10:01:47;;;;;;;4.57;4.20;;;;;;;-145.53;100.00;64590.91;6326567;28;20526;-60
2023/03/17 10:04:52;;;;;;;4.83;4.43;;;;;;;-145.53;100.00;64590.91;6337559;28;20503;-60
2023/03/17 10:08:08;;;;;;;4.00;3.70;;;;;;;-145.53;100.00;64590.91;6335316;28;20944;-61
2023/03/17 10:11:42;;;;;;;4.17;3.77;;;;;;;-145.53;100.00;64590.91;6339967;28;20918;-61
2023/03/17 10:15:02;;;;;;;4.00;3.70;;;;;;;-145.53;100.00;64590.91;6351184;27;20496;-61
2023/03/17 10:18:17;;;;;;;4.00;3.70;;;;;;;-145.53;100.00;64590.91;6360680;28;20417;-60
2023/03/17 10:21:28;;;;;;;3.90;3.60;;;;;;;-145.53;100.00;64590.91;6340622;28;20441;-61
2023/03/17 10:24:40;;;;;;;4.60;4.20;;;;;;;-145.53;100.00;64590.91;6326732;28;20446;-60
2023/03/17 10:27:52;;;;;;;3.80;3.50;;;;;;;-145.53;100.00;64590.91;6334572;28;20802;-60
2023/03/17 10:31:13;;;;;;;3.90;3.60;;;;;;;-145.53;100.00;64590.91;6336568;28;20446;-61
2023/03/17 10:34:26;;;;;;;4.10;3.80;;;;;;;-145.53;100.00;64590.91;6336715;28;20444;-60
2023/03/17 10:37:35;;;;;;;4.13;3.80;;;;;;;-145.53;100.00;64590.91;6324611;28;21001;-60
2023/03/17 10:40:55;;;;;;;3.90;3.60;;;;;;;-145.53;100.00;64590.91;6350420;28;20440;-60
2023/03/17 10:44:03;;;;;;;3.50;3.20;;;;;;;-145.53;100.00;64590.91;6362021;27;20429;-61
2023/03/17 10:47:31;;;;;;;4.30;3.67;;;;;;;-145.53;100.00;64590.91;6352750;27;20579;-61
2023/03/17 10:50:44;;;;;;;3.87;3.57;;;;;;;-145.53;100.00;64590.91;6362340;27;20412;-62
2023/03/17 10:53:56;;;;;;;3.70;3.40;;;;;;;-145.53;100.00;64590.91;6343175;28;20418;-60
2023/03/17 10:57:12;;;;;;;3.43;3.20;;;;;;;-145.53;100.00;64590.91;6352800;28;20431;-63
2023/03/17 11:00:25;;;;;;;3.87;3.57;;;;;;;-145.53;100.00;64590.91;6350858;27;20433;-61
2023/03/17 11:03:43;;;;;;;3.77;3.37;;;;;;;-145.53;100.00;64590.91;6361851;27;20913;-61
2023/03/17 11:06:51;;;;;;;4.33;4.03;;;;;;;-145.53;100.00;64590.91;6346750;27;20507;-60
2023/03/17 11:10:03;;;;;;;3.67;3.37;;;;;;;-145.53;100.00;64590.91;6325654;28;20461;-62
2023/03/17 11:13:19;;;;;;;3.30;3.00;;;;;;;-145.53;100.00;64590.91;6352410;28;20428;-61
2023/03/17 11:16:28;;;;;;;3.67;3.37;;;;;;;-145.53;100.00;64590.91;6360601;27;20421;-62
2023/03/17 11:19:50;;;;;;;3.57;3.03;;;;;;;-145.53;100.00;64590.91;6362058;27;20909;-62
2023/03/17 11:23:04;;;;;;;3.37;3.07;;;;;;;-145.53;100.00;64590.91;6349901;27;20519;-60
2023/03/17 11:26:41;;;;;;;3.67;3.37;;;;;;;-145.53;100.00;64590.91;6360590;27;20432;-60
2023/03/17 11:30:01;;;;;;;3.43;3.13;;;;;;;-145.53;100.00;64590.91;6346508;27;20442;-60
2023/03/17 11:33:22;;;;;;;4.40;2.83;;;;;;;-145.53;100.00;64590.91;6349142;27;20980;-60
2023/03/17 11:36:49;;;;;;;3.80;2.97;;;;;;;-145.53;100.00;64590.91;6360424;27;20473;-60
2023/03/17 11:40:04;;;;;;;3.97;3.20;;;;;;;-145.53;100.00;64590.91;6361271;27;20842;-61
2023/03/17 11:43:27;;;;;;;3.27;3.03;;;;;;;-145.53;100.00;64590.91;6345655;27;20434;-60
2023/03/17 11:46:44;;;;;;;3.20;2.90;;;;;;;-145.53;100.00;64590.91;6327130;28;20951;-60
2023/03/17 11:50:01;;;;;;;3.37;3.07;;;;;;;-145.53;100.00;64590.91;6310321;28;20420;-60
2023/03/17 11:53:33;;;;;;;2.87;2.67;;;;;;;-145.53;100.00;64590.91;6309496;28;20434;-60
2023/03/17 11:56:47;;;;;;;2.90;2.70;;;;;;;-145.53;100.00;64590.91;6310781;28;20464;-60
2023/03/17 12:00:03;;;;;;;3.23;2.93;;;;;;;-145.53;100.00;64590.91;6335438;28;20425;-61
2023/03/17 12:03:17;;;;;;;2.70;2.50;;;;;;;-145.53;100.00;64590.91;6335211;28;20440;-60
2023/03/17 12:06:30;;;;;;;3.50;2.53;;;;;;;-145.53;100.00;64590.91;6330053;28;20425;-62
2023/03/17 12:09:45;;;;;;;2.80;2.60;;;;;;;-145.53;100.00;64590.91;6329764;28;20844;-60
2023/03/17 12:12:56;;;;;;;2.70;2.50;;;;;;;-145.53;100.00;64590.91;6322744;28;20438;-60
2023/03/17 12:16:05;;;;;;;2.57;2.37;;;;;;;-145.53;100.00;64590.91;6316620;28;20484;-61
2023/03/17 12:19:21;;;;;;;2.50;2.30;;;;;;;-145.53;100.00;64590.91;6324056;28;20441;-60
2023/03/17 12:22:32;;;;;;;2.20;2.00;;;;;;;-145.53;100.00;64590.91;6334909;28;20969;-60
2023/03/17 12:25:53;;;;;;;2.60;2.40;;;;;;;-145.53;100.00;64590.91;6329570;28;20422;-60
2023/03/17 12:29:06;;;;;;;2.57;2.37;;;;;;;-145.53;100.00;64590.91;6310011;28;20966;-61
2023/03/17 12:32:20;;;;;;;2.57;2.37;;;;;;;-145.53;100.00;64590.91;6302485;28;20407;-61
2023/03/17 12:35:30;;;;;;;2.97;2.30;;;;;;;-145.53;100.00;64590.91;6309371;28;20422;-59
2023/03/17 12:38:41;;;;;;;2.60;2.40;;;;;;;-145.53;100.00;64590.91;6309746;28;20418;-61
2023/03/17 12:42:12;;;;;;;2.70;2.50;;;;;;;-145.53;100.00;64590.91;6301331;28;20448;-61
2023/03/17 12:45:39;;;;;;;3.77;2.70;;;;;;;-145.53;100.00;64590.91;6332555;28;20437;-61
2023/03/17 12:49:13;;;;;;;2.70;2.50;;;;;;;-145.53;100.00;64590.91;6350642;28;20445;-61
2023/03/17 12:52:48;;;;;;;2.73;2.53;;;;;;;-145.53;100.00;64590.91;6354198;27;20437;-60
2023/03/17 12:55:59;;;;;;;2.50;2.30;;;;;;;-145.53;100.00;64590.91;6358489;27;20808;-60
2023/03/17 12:59:12;;;;;;;3.80;2.23;;;;;;;-145.53;100.00;64590.91;6359899;27;20421;-61
2023/03/17 13:02:31;;;;;;;2.73;2.53;;;;;;;-145.53;100.00;64590.91;6359519;27;20804;-61
2023/03/17 13:05:37;;;;;;;2.67;2.47;;;;;;;-145.53;100.00;64590.91;6347325;28;20933;-61
2023/03/17 13:08:50;;;;;;;2.50;2.30;;;;;;;-145.53;100.00;64590.91;6359659;27;20436;-60
2023/03/17 13:11:59;;;;;;;2.23;2.03;;;;;;;-145.53;100.00;64590.91;6355514;28;20433;-61
2023/03/17 13:15:26;;;;;;;2.33;2.13;;;;;;;-145.53;100.00;64590.91;6329049;28;20442;-60
2023/03/17 13:19:08;;;;;;;3.87;2.53;;;;;;;-145.53;100.00;64590.91;6333834;28;20568;-60
2023/03/17 13:22:39;;;;;;;2.23;2.03;;;;;;;-145.53;100.00;64590.91;6334549;28;20433;-60
2023/03/17 13:25:53;;;;;;;2.03;1.93;;;;;;;-145.53;100.00;64590.91;6350208;28;20605;-61
2023/03/17 13:29:23;;;;;;;2.23;2.03;;;;;;;-145.53;100.00;64590.91;6348014;28;20461;-61
2023/03/17 13:32:40;;;;;;;2.37;1.93;;;;;;;-145.53;100.00;64590.91;6359054;27;20425;-61
2023/03/17 13:36:16;;;;;;;2.17;2.03;;;;;;;-145.53;100.00;64590.91;6358403;28;20501;-61
2023/03/17 13:40:05;;;;;;;1.90;1.70;;;;;;;-145.53;100.00;64590.91;6345318;28;20436;-61
2023/03/17 13:43:43;;;;;;;1.90;1.80;;;;;;;-145.53;100.00;64590.91;6337403;27;20501;-61
2023/03/17 13:46:51;;;;;;;2.23;2.03;;;;;;;-145.53;100.00;64590.91;6332436;28;20464;-60
2023/03/17 13:50:10;;;;;;;1.87;1.70;;;;;;;-145.53;100.00;64590.91;6322580;28;20532;-61
2023/03/17 13:53:20;;;;;;;1.80;1.70;;;;;;;-145.53;100.00;64590.91;6333797;28;20425;-61
2023/03/17 13:56:29;;;;;;;3.67;3.40;;;;;;;-145.53;100.00;64590.91;6335158;28;20928;-61
2023/03/17 13:59:55;;;;;;;2.47;1.77;;;;;;;-145.53;100.00;64590.91;6337769;28;21369;-62
2023/03/17 14:03:06;;;;;;;1.70;1.60;;;;;;;-145.53;100.00;64590.91;6326222;28;20536;-61
2023/03/17 14:06:17;;;;;;;1.90;1.80;;;;;;;-145.53;100.00;64590.91;6336267;28;20426;-60
2023/03/17 14:09:34;;;;;;;2.60;2.07;;;;;;;-145.53;100.00;64590.91;6337830;28;20441;-61
2023/03/17 14:12:51;;;;;;;2.70;1.90;;;;;;;-145.53;100.00;64590.91;6327202;28;20437;-61
2023/03/17 14:16:02;;;;;;;1.70;1.60;;;;;;;-145.53;100.00;64590.91;6335385;28;20425;-61
2023/03/17 14:19:21;;;;;;;2.00;1.73;;;;;;;-145.53;100.00;64590.91;6337473;28;20430;-60
2023/03/17 14:22:33;;;;;;;2.00;1.80;;;;;;;-145.53;100.00;64590.91;6337225;28;20929;-61
2023/03/17 14:25:45;;;;;;;2.07;1.87;;;;;;;-145.53;100.00;64590.91;6324289;28;20442;-61
2023/03/17 14:28:57;;;;;;;1.87;1.77;;;;;;;-145.53;100.00;64590.91;6337096;28;20464;-60